createdAt,value
2018-01-21T00:00:06.369Z,18.87
2018-01-21T00:02:34.752Z,17.40
2018-01-21T00:05:03.264Z,17.10
2018-01-21T00:07:31.643Z,18.48
2018-01-21T00:10:00.014Z,18.12
2018-01-21T00:12:28.359Z,17.42
2018-01-21T00:14:56.739Z,16.87
2018-01-21T00:17:25.139Z,17.08
2018-01-21T00:19:53.492Z,17.30
2018-01-21T00:22:46.198Z,18.83
2018-01-21T00:25:15.464Z,18.37
2018-01-21T00:27:43.787Z,16.90
2018-01-21T00:30:12.261Z,18.30
2018-01-21T00:32:40.599Z,17.80
2018-01-21T00:35:08.921Z,17.20
2018-01-21T00:37:37.309Z,18.48
2018-01-21T00:40:05.634Z,17.62
2018-01-21T00:42:33.990Z,17.80
2018-01-21T00:45:02.388Z,18.55
2018-01-21T00:47:30.744Z,18.62
2018-01-21T00:49:59.075Z,18.67
2018-01-21T00:52:27.409Z,18.40
2018-01-21T00:54:55.785Z,17.62
2018-01-21T00:57:24.121Z,18.77
2018-01-21T00:59:52.462Z,16.98
2018-01-21T01:02:20.826Z,18.35
2018-01-21T01:04:55.249Z,16.55
2018-01-21T01:07:23.585Z,17.60
2018-01-21T01:09:51.974Z,17.33
2018-01-21T01:12:20.374Z,16.42
2018-01-21T01:14:50.800Z,16.00
2018-01-21T01:17:19.184Z,15.73
2018-01-21T01:19:47.582Z,17.23
2018-01-21T01:22:15.908Z,16.92
2018-01-21T01:24:44.325Z,16.77
2018-01-21T01:27:12.668Z,18.48
2018-01-21T01:29:41.024Z,16.37
2018-01-21T01:32:09.415Z,17.15
2018-01-21T01:34:37.861Z,17.73
2018-01-21T01:37:06.234Z,17.92
2018-01-21T01:39:34.566Z,16.65
2018-01-21T01:42:02.957Z,16.52
2018-01-21T01:44:31.276Z,16.30
2018-01-21T01:46:59.588Z,16.48
2018-01-21T01:49:27.949Z,16.10
2018-01-21T01:51:56.286Z,17.15
2018-01-21T01:54:24.653Z,16.48
2018-01-21T01:56:53.045Z,16.00
2018-01-21T01:59:21.422Z,15.98
2018-01-21T02:01:49.888Z,16.10
2018-01-21T02:04:19.325Z,15.90
2018-01-21T02:06:47.617Z,16.05
2018-01-21T02:09:17.077Z,15.77
2018-01-21T02:11:45.466Z,15.85
2018-01-21T02:14:13.797Z,16.10
2018-01-21T02:16:42.157Z,15.55
2018-01-21T02:19:10.557Z,15.77
2018-01-21T02:21:38.895Z,16.08
2018-01-21T02:24:07.253Z,15.23
2018-01-21T02:26:35.601Z,15.60
2018-01-21T02:29:03.932Z,14.50
2018-01-21T02:31:32.326Z,16.25
2018-01-21T02:34:00.682Z,15.43
2018-01-21T02:36:28.998Z,15.70
2018-01-21T02:38:57.387Z,16.62
2018-01-21T02:41:25.771Z,15.25
2018-01-21T02:43:54.092Z,15.63
2018-01-21T02:46:22.404Z,16.05
2018-01-21T02:48:50.761Z,16.52
2018-01-21T02:51:19.097Z,16.25
2018-01-21T02:53:47.438Z,15.25
2018-01-21T02:56:17.923Z,15.48
2018-01-21T02:58:46.320Z,16.17
2018-01-21T03:01:14.779Z,16.12
2018-01-21T03:03:43.167Z,15.32
2018-01-21T03:06:11.500Z,17.10
2018-01-21T03:08:39.810Z,16.08
2018-01-21T03:11:08.158Z,15.60
2018-01-21T03:13:36.510Z,17.23
2018-01-21T03:16:04.852Z,15.63
2018-01-21T03:18:33.210Z,15.65
2018-01-21T03:21:01.524Z,16.25
2018-01-21T03:23:29.862Z,16.87
2018-01-21T03:25:58.219Z,16.65
2018-01-21T03:28:26.557Z,18.05
2018-01-21T03:30:54.909Z,17.90
2018-01-21T03:33:23.241Z,18.33
2018-01-21T03:35:51.573Z,17.95
2018-01-21T03:38:19.892Z,18.92
2018-01-21T03:40:48.232Z,17.73
2018-01-21T03:43:16.548Z,17.62
2018-01-21T03:45:44.925Z,18.02
2018-01-21T03:48:13.298Z,18.25
2018-01-21T03:50:41.640Z,17.90
2018-01-21T03:53:09.973Z,18.40
2018-01-21T03:55:38.372Z,18.65
2018-01-21T03:58:06.685Z,19.00
2018-01-21T04:00:35.018Z,17.12
2018-01-21T04:03:03.425Z,17.80
2018-01-21T04:05:31.754Z,18.73
2018-01-21T04:08:00.078Z,18.90
2018-01-21T04:10:28.414Z,17.95
2018-01-21T04:12:56.758Z,18.35
2018-01-21T04:15:25.077Z,20.10
2018-01-21T04:17:53.495Z,18.25
2018-01-21T04:20:21.850Z,17.83
2018-01-21T04:22:50.415Z,17.85
2018-01-21T04:25:18.885Z,19.10
2018-01-21T04:27:47.196Z,17.50
2018-01-21T04:30:15.489Z,18.85
2018-01-21T04:32:43.813Z,18.67
2018-01-21T04:35:12.135Z,17.70
2018-01-21T04:37:40.438Z,18.45
2018-01-21T04:40:08.823Z,18.25
2018-01-21T04:42:37.133Z,18.60
2018-01-21T04:45:05.462Z,18.95
2018-01-21T04:47:33.820Z,16.77
2018-01-21T04:50:02.191Z,18.40
2018-01-21T04:52:30.577Z,16.65
2018-01-21T04:54:58.919Z,19.08
2018-01-21T04:57:27.267Z,18.80
2018-01-21T04:59:55.589Z,17.92
2018-01-21T05:02:24.075Z,18.10
2018-01-21T05:04:52.542Z,18.80
2018-01-21T05:07:21.936Z,17.65
2018-01-21T05:09:50.315Z,18.73
2018-01-21T05:12:18.628Z,17.23
2018-01-21T05:14:46.973Z,17.85
2018-01-21T05:17:15.342Z,17.73
2018-01-21T05:19:50.816Z,17.90
2018-01-21T05:22:19.144Z,18.92
2018-01-21T05:24:47.461Z,19.08
2018-01-21T05:27:15.811Z,19.90
2018-01-21T05:29:44.440Z,20.00
2018-01-21T05:32:13.099Z,20.40
2018-01-21T05:34:41.458Z,18.60
2018-01-21T05:37:09.886Z,18.52
2018-01-21T05:39:38.213Z,19.70
2018-01-21T05:42:06.630Z,19.58
2018-01-21T05:44:34.972Z,18.50
2018-01-21T05:47:03.411Z,19.45
2018-01-21T05:49:31.731Z,18.95
2018-01-21T05:52:00.090Z,19.25
2018-01-21T05:54:28.463Z,19.42
2018-01-21T05:56:56.792Z,17.90
2018-01-21T05:59:25.180Z,18.05
2018-01-21T06:01:54.557Z,19.37
2018-01-21T06:04:22.934Z,18.40
2018-01-21T06:06:51.309Z,17.80
2018-01-21T06:09:19.636Z,19.65
2018-01-21T06:11:47.990Z,19.27
2018-01-21T06:14:17.408Z,19.40
2018-01-21T06:16:45.713Z,18.40
2018-01-21T06:19:14.201Z,18.12
2018-01-21T06:21:42.553Z,16.77
2018-01-21T06:24:10.892Z,18.30
2018-01-21T06:26:39.257Z,17.83
2018-01-21T06:29:07.656Z,17.50
2018-01-21T06:31:35.950Z,18.62
2018-01-21T06:34:04.347Z,18.10
2018-01-21T06:36:32.724Z,17.48
2018-01-21T06:39:01.037Z,19.60
2018-01-21T06:41:29.351Z,17.67
2018-01-21T06:43:57.728Z,20.37
2018-01-21T06:46:26.117Z,18.83
2018-01-21T06:48:54.446Z,19.90
2018-01-21T06:51:22.841Z,21.00
2018-01-21T06:53:51.153Z,25.00
2018-01-21T06:56:19.478Z,19.67
2018-01-21T06:58:47.894Z,23.40
2018-01-21T07:01:16.230Z,20.35
2018-01-21T07:03:44.602Z,21.33
2018-01-21T07:06:12.975Z,20.25
2018-01-21T07:08:41.308Z,20.92
2018-01-21T07:11:09.650Z,21.85
2018-01-21T07:13:40.020Z,19.80
2018-01-21T07:16:08.408Z,20.67
2018-01-21T07:18:38.873Z,18.85
2018-01-21T07:21:07.334Z,17.15
2018-01-21T07:23:42.945Z,15.93
2018-01-21T07:26:12.376Z,16.23
2018-01-21T07:28:40.756Z,16.37
2018-01-21T07:31:11.228Z,16.00
2018-01-21T07:33:39.755Z,15.75
2018-01-21T07:36:08.160Z,17.50
2018-01-21T07:38:36.485Z,22.67
2018-01-21T07:41:04.861Z,22.10
2018-01-21T07:43:33.304Z,19.65
2018-01-21T07:46:02.704Z,19.08
2018-01-21T07:48:31.091Z,19.52
2018-01-21T07:50:59.421Z,20.12
2018-01-21T07:53:27.889Z,19.50
2018-01-21T07:55:56.389Z,18.20
2018-01-21T07:58:24.728Z,21.48
2018-01-21T08:00:54.132Z,19.58
2018-01-21T08:03:22.559Z,19.37
2018-01-21T08:05:51.064Z,18.15
2018-01-21T08:08:19.392Z,19.05
2018-01-21T08:10:47.861Z,19.15
2018-01-21T08:13:16.174Z,19.25
2018-01-21T08:15:44.486Z,18.50
2018-01-21T08:18:12.918Z,16.35
2018-01-21T08:20:41.280Z,17.15
2018-01-21T08:23:09.643Z,16.40
2018-01-21T08:25:38.048Z,16.13
2018-01-21T08:28:06.404Z,16.57
2018-01-21T08:30:34.766Z,16.33
2018-01-21T08:33:03.192Z,15.73
2018-01-21T08:35:37.494Z,16.83
2018-01-21T08:38:12.102Z,16.00
2018-01-21T08:40:46.485Z,16.37
2018-01-21T08:43:14.903Z,14.37
2018-01-21T08:45:43.248Z,15.47
2018-01-21T08:48:11.612Z,16.20
2018-01-21T08:50:40.087Z,15.77
2018-01-21T08:53:08.522Z,14.80
2018-01-21T08:55:36.916Z,13.83
2018-01-21T08:58:05.264Z,15.27
2018-01-21T09:00:33.602Z,15.90
2018-01-21T09:03:01.988Z,15.43
2018-01-21T09:05:30.444Z,15.73
2018-01-21T09:07:58.886Z,15.77
2018-01-21T09:10:27.262Z,15.23
2018-01-21T09:12:55.618Z,16.53
2018-01-21T09:15:24.060Z,15.90
2018-01-21T09:17:52.465Z,15.47
2018-01-21T09:20:20.895Z,14.50
2018-01-21T09:22:49.241Z,14.53
2018-01-21T09:25:17.589Z,15.03
2018-01-21T09:27:46.050Z,15.00
2018-01-21T09:30:14.401Z,14.43
2018-01-21T09:32:42.935Z,13.50
2018-01-21T09:35:11.310Z,14.27
2018-01-21T09:37:39.653Z,14.90
2018-01-21T09:40:08.039Z,14.97
2018-01-21T09:42:36.462Z,14.27
2018-01-21T09:45:04.798Z,15.20
2018-01-21T09:47:33.167Z,14.47
2018-01-21T09:50:01.532Z,14.23
2018-01-21T09:52:29.841Z,13.77
2018-01-21T09:54:58.164Z,15.10
2018-01-21T09:57:26.558Z,17.53
2018-01-21T09:59:54.945Z,17.33
2018-01-21T10:02:23.293Z,15.50
2018-01-21T10:04:51.687Z,17.57
2018-01-21T10:07:20.093Z,17.80
2018-01-21T10:09:48.409Z,17.20
2018-01-21T10:12:16.810Z,19.40
2018-01-21T10:14:45.174Z,16.77
2018-01-21T10:17:13.645Z,18.37
2018-01-21T10:19:42.010Z,15.50
2018-01-21T10:22:10.361Z,16.10
2018-01-21T10:24:38.751Z,16.20
2018-01-21T10:27:07.098Z,14.53
2018-01-21T10:29:35.429Z,14.87
2018-01-21T10:32:03.782Z,15.40
2018-01-21T10:34:32.203Z,15.17
2018-01-21T10:37:00.583Z,14.90
2018-01-21T10:39:28.955Z,15.90
2018-01-21T10:41:57.292Z,15.47
2018-01-21T10:44:25.657Z,15.33
2018-01-21T10:46:53.974Z,16.40
2018-01-21T10:49:22.468Z,17.37
2018-01-21T10:51:50.880Z,15.37
2018-01-21T10:54:19.255Z,14.27
2018-01-21T10:56:47.739Z,13.80
2018-01-21T10:59:16.177Z,14.33
2018-01-21T11:01:44.517Z,14.07
2018-01-21T11:04:12.879Z,14.10
2018-01-21T11:06:41.207Z,13.60
2018-01-21T11:09:09.531Z,14.30
2018-01-21T11:11:37.870Z,13.90
2018-01-21T11:14:06.204Z,13.20
2018-01-21T11:16:34.552Z,13.03
2018-01-21T11:19:02.917Z,12.73
2018-01-21T11:21:31.638Z,10.57
2018-01-21T11:23:59.964Z,11.77
2018-01-21T11:26:28.512Z,11.30
2018-01-21T11:28:56.883Z,11.40
2018-01-21T11:31:25.214Z,3.20
2018-01-21T11:33:53.552Z,9.23
2018-01-21T11:36:21.895Z,12.73
2018-01-21T11:38:50.226Z,1.23
2018-01-21T11:41:18.587Z,0.50
2018-01-21T11:43:46.935Z,0.80
2018-01-21T11:46:15.258Z,0.70
2018-01-21T11:48:43.621Z,0.70
2018-01-21T11:51:11.973Z,0.83
2018-01-21T11:53:40.314Z,0.80
2018-01-21T11:56:08.658Z,0.47
2018-01-21T11:58:37.031Z,0.47
2018-01-21T12:01:03.793Z,0.50
2018-01-21T12:03:30.532Z,0.80
2018-01-21T12:05:58.914Z,0.80
2018-01-21T12:08:27.261Z,0.50
2018-01-21T12:10:55.664Z,0.50
2018-01-21T12:13:24.025Z,0.50
2018-01-21T12:15:52.361Z,0.50
2018-01-21T12:18:20.738Z,0.60
2018-01-21T12:20:49.116Z,0.63
2018-01-21T12:23:15.809Z,0.40
2018-01-21T12:25:42.535Z,0.63
2018-01-21T12:28:09.974Z,0.60
2018-01-21T12:30:37.788Z,0.40
2018-01-21T12:33:05.331Z,0.40
2018-01-21T12:35:32.783Z,0.60
2018-01-21T12:38:01.144Z,0.90
2018-01-21T12:40:29.562Z,0.50
2018-01-21T12:42:57.926Z,0.43
2018-01-21T12:45:26.259Z,0.60
2018-01-21T12:47:54.603Z,0.50
2018-01-21T12:50:22.053Z,0.53
2018-01-21T12:52:48.938Z,0.40
2018-01-21T12:55:15.675Z,0.60
2018-01-21T12:57:42.444Z,0.57
2018-01-21T13:00:09.190Z,0.60
2018-01-21T13:02:35.894Z,0.50
2018-01-21T13:05:02.681Z,0.40
2018-01-21T13:07:29.417Z,0.40
2018-01-21T13:09:56.214Z,0.60
2018-01-21T13:12:23.104Z,0.50
2018-01-21T13:14:49.860Z,0.60
2018-01-21T13:17:16.624Z,0.50
2018-01-21T13:19:43.285Z,0.67
2018-01-21T13:22:10.762Z,1.20
2018-01-21T13:24:38.212Z,0.50
2018-01-21T13:27:04.910Z,0.70
2018-01-21T13:29:31.686Z,0.60
2018-01-21T13:31:58.429Z,0.43
2018-01-21T13:34:25.173Z,0.60
2018-01-21T13:36:51.871Z,0.43
2018-01-21T13:39:18.563Z,0.50
2018-01-21T13:41:46.019Z,0.70
2018-01-21T13:44:12.746Z,0.60
2018-01-21T13:46:39.523Z,0.70
2018-01-21T13:49:07.124Z,0.83
2018-01-21T13:51:33.913Z,0.53
2018-01-21T13:54:01.354Z,0.53
2018-01-21T13:56:28.056Z,0.50
2018-01-21T13:58:55.470Z,0.60
2018-01-21T14:01:22.226Z,0.80
2018-01-21T14:03:48.932Z,0.80
2018-01-21T14:06:15.634Z,1.02
2018-01-21T14:08:42.511Z,0.60
2018-01-21T14:11:09.245Z,0.73
2018-01-21T14:13:35.967Z,0.50
2018-01-21T14:16:02.729Z,0.60
2018-01-21T14:18:30.147Z,0.47
2018-01-21T14:20:56.841Z,0.97
2018-01-21T14:23:23.622Z,0.93
2018-01-21T14:25:50.352Z,0.73
2018-01-21T14:28:17.116Z,0.73
2018-01-21T14:30:43.819Z,0.50
2018-01-21T14:33:10.532Z,0.60
2018-01-21T14:35:37.225Z,0.70
2018-01-21T14:38:04.008Z,0.80
2018-01-21T14:40:30.883Z,0.47
2018-01-21T14:42:58.499Z,0.57
2018-01-21T14:45:25.222Z,0.40
2018-01-21T14:47:51.906Z,0.88
2018-01-21T14:50:18.602Z,0.80
2018-01-21T14:52:45.362Z,0.93
2018-01-21T14:55:12.144Z,0.70
2018-01-21T14:57:38.865Z,0.62
2018-01-21T15:00:07.663Z,0.77
2018-01-21T15:02:34.341Z,0.77
2018-01-21T15:05:01.759Z,1.00
2018-01-21T15:07:28.469Z,1.10
2018-01-21T15:09:55.150Z,1.35
2018-01-21T15:12:21.866Z,1.00
2018-01-21T15:14:48.650Z,0.70
2018-01-21T15:17:19.058Z,1.00
2018-01-21T15:19:45.790Z,0.77
2018-01-21T15:22:12.581Z,0.73
2018-01-21T15:24:39.354Z,0.70
2018-01-21T15:27:07.103Z,1.05
2018-01-21T15:29:33.871Z,0.80
2018-01-21T15:32:00.577Z,1.10
2018-01-21T15:34:27.380Z,1.00
2018-01-21T15:36:55.215Z,0.50
2018-01-21T15:39:22.700Z,0.82
2018-01-21T15:41:49.566Z,0.90
2018-01-21T15:44:16.371Z,0.70
2018-01-21T15:46:43.788Z,0.90
2018-01-21T15:49:10.471Z,0.93
2018-01-21T15:51:38.130Z,0.82
2018-01-21T15:54:05.645Z,1.10
2018-01-21T15:56:32.346Z,1.25
2018-01-21T15:58:59.815Z,1.17
2018-01-21T16:01:26.730Z,0.62
2018-01-21T16:03:53.477Z,0.82
2018-01-21T16:06:20.256Z,2.10
2018-01-21T16:08:47.709Z,0.70
2018-01-21T16:11:15.209Z,1.10
2018-01-21T16:13:42.020Z,1.05
2018-01-21T16:16:09.511Z,0.60
2018-01-21T16:18:37.044Z,0.80
2018-01-21T16:21:04.555Z,0.80
2018-01-21T16:23:31.209Z,0.50
2018-01-21T16:25:57.945Z,0.90
2018-01-21T16:28:24.672Z,0.88
2018-01-21T16:30:51.432Z,0.70
2018-01-21T16:33:18.173Z,0.80
2018-01-21T16:35:45.752Z,0.60
2018-01-21T16:38:33.855Z,0.60
2018-01-21T16:41:00.638Z,0.82
2018-01-21T16:43:27.403Z,0.80
2018-01-21T16:45:54.130Z,0.60
2018-01-21T16:48:20.934Z,0.80
2018-01-21T16:50:47.682Z,0.90
2018-01-21T16:53:14.381Z,0.70
2018-01-21T16:55:41.129Z,0.80
2018-01-21T16:58:07.814Z,0.73
2018-01-21T17:00:34.500Z,0.55
2018-01-21T17:03:01.315Z,0.43
2018-01-21T17:05:28.077Z,0.90
2018-01-21T17:07:54.852Z,1.10
2018-01-21T17:10:21.622Z,0.82
2018-01-21T17:12:49.053Z,0.90
2018-01-21T17:15:15.779Z,0.88
2018-01-21T17:17:42.839Z,0.65
2018-01-21T17:20:09.589Z,2.12
2018-01-21T17:22:36.459Z,1.20
2018-01-21T17:25:03.982Z,0.90
2018-01-21T17:27:30.714Z,1.17
2018-01-21T17:29:58.193Z,1.20
2018-01-21T17:32:24.938Z,1.10
2018-01-21T17:34:51.675Z,1.17
2018-01-21T17:37:18.390Z,1.00
2018-01-21T17:39:45.322Z,1.30
2018-01-21T17:42:12.214Z,1.15
2018-01-21T17:44:38.959Z,1.08
2018-01-21T17:47:05.895Z,0.90
2018-01-21T17:49:32.640Z,0.70
2018-01-21T17:51:59.337Z,1.10
2018-01-21T17:54:26.816Z,1.40
2018-01-21T17:56:54.257Z,1.02
2018-01-21T17:59:21.924Z,1.23
2018-01-21T18:01:49.466Z,1.40
2018-01-21T18:04:16.323Z,1.25
2018-01-21T18:06:43.338Z,1.45
2018-01-21T18:09:10.126Z,1.65
2018-01-21T18:11:37.606Z,1.37
2018-01-21T18:14:05.194Z,1.33
2018-01-21T18:16:31.968Z,1.30
2018-01-21T18:18:58.698Z,1.20
2018-01-21T18:21:25.361Z,1.80
2018-01-21T18:23:52.325Z,1.58
2018-01-21T18:26:19.038Z,1.75
2018-01-21T18:28:45.756Z,1.27
2018-01-21T18:31:12.554Z,1.80
2018-01-21T18:33:39.251Z,1.40
2018-01-21T18:36:05.952Z,2.10
2018-01-21T18:38:32.687Z,1.30
2018-01-21T18:40:59.374Z,2.00
2018-01-21T18:43:26.087Z,1.48
2018-01-21T18:45:53.690Z,1.00
2018-01-21T18:48:21.684Z,1.30
2018-01-21T18:50:53.618Z,2.08
2018-01-21T18:53:22.638Z,1.37
2018-01-21T18:55:49.313Z,1.20
2018-01-21T18:58:16.179Z,1.20
2018-01-21T19:00:43.778Z,1.55
2018-01-21T19:03:10.550Z,2.15
2018-01-21T19:05:37.246Z,1.35
2018-01-21T19:08:04.723Z,1.05
2018-01-21T19:10:31.428Z,1.08
2018-01-21T19:12:58.149Z,1.05
2018-01-21T19:15:24.937Z,0.90
2018-01-21T19:17:52.500Z,1.48
2018-01-21T19:20:19.290Z,1.40
2018-01-21T19:22:46.069Z,2.05
2018-01-21T19:25:12.820Z,1.98
2018-01-21T19:27:40.319Z,1.12
2018-01-21T19:30:07.109Z,0.90
2018-01-21T19:32:33.913Z,1.27
2018-01-21T19:35:00.635Z,1.40
2018-01-21T19:37:28.206Z,1.60
2018-01-21T19:40:01.429Z,1.10
2018-01-21T19:42:35.285Z,1.52
2018-01-21T19:45:02.094Z,2.08
2018-01-21T19:47:28.796Z,1.20
2018-01-21T19:49:56.280Z,1.20
2018-01-21T19:52:23.024Z,1.42
2018-01-21T19:54:49.748Z,1.02
2018-01-21T19:57:17.235Z,1.67
2018-01-21T19:59:44.122Z,1.25
2018-01-21T20:02:10.928Z,1.42
2018-01-21T20:04:37.697Z,1.12
2018-01-21T20:07:04.633Z,1.50
2018-01-21T20:09:31.410Z,1.00
2018-01-21T20:11:58.299Z,1.25
2018-01-21T20:14:25.074Z,1.50
2018-01-21T20:16:51.745Z,2.12
2018-01-21T20:19:18.490Z,1.85
2018-01-21T20:21:45.998Z,1.85
2018-01-21T20:24:12.837Z,2.30
2018-01-21T20:26:39.610Z,2.10
2018-01-21T20:29:06.327Z,2.50
2018-01-21T20:31:33.127Z,1.92
2018-01-21T20:33:59.827Z,2.80
2018-01-21T20:36:26.526Z,1.75
2018-01-21T20:38:53.383Z,1.90
2018-01-21T20:41:20.946Z,1.80
2018-01-21T20:43:48.456Z,1.90
2018-01-21T20:46:16.222Z,2.28
2018-01-21T20:48:43.110Z,1.92
2018-01-21T20:51:15.756Z,2.20
2018-01-21T20:53:48.589Z,2.20
2018-01-21T20:56:15.440Z,1.85
2018-01-21T20:58:42.903Z,2.30
2018-01-21T21:01:10.395Z,1.98
2018-01-21T21:03:39.211Z,2.20
2018-01-21T21:06:07.997Z,1.92
2018-01-21T21:08:34.713Z,2.00
2018-01-21T21:11:02.158Z,1.80
2018-01-21T21:13:29.639Z,2.30
2018-01-21T21:15:56.410Z,2.22
2018-01-21T21:18:23.162Z,2.22
2018-01-21T21:20:50.611Z,2.25
2018-01-21T21:23:17.366Z,3.03
2018-01-21T21:25:44.061Z,2.30
2018-01-21T21:28:11.514Z,2.55
2018-01-21T21:30:39.025Z,1.83
2018-01-21T21:33:05.742Z,2.20
2018-01-21T21:35:32.532Z,1.90
2018-01-21T21:37:59.259Z,2.30
2018-01-21T21:40:25.947Z,2.50
2018-01-21T21:42:52.644Z,2.70
2018-01-21T21:45:19.353Z,2.40
2018-01-21T21:47:46.905Z,3.22
2018-01-21T21:50:13.719Z,3.05
2018-01-21T21:52:40.418Z,2.65
2018-01-21T21:55:07.135Z,2.65
2018-01-21T21:57:34.870Z,2.15
2018-01-21T22:00:01.759Z,2.70
2018-01-21T22:02:29.316Z,2.62
2018-01-21T22:04:56.136Z,2.87
2018-01-21T22:07:23.895Z,2.90
2018-01-21T22:09:50.684Z,3.00
2018-01-21T22:12:18.132Z,3.33
2018-01-21T22:14:45.616Z,3.22
2018-01-21T22:17:12.310Z,3.75
2018-01-21T22:19:39.101Z,3.58
2018-01-21T22:22:06.599Z,4.55
2018-01-21T22:24:33.497Z,4.35
2018-01-21T22:27:00.947Z,4.07
2018-01-21T22:29:27.834Z,4.53
2018-01-21T22:31:54.540Z,4.40
2018-01-21T22:34:21.288Z,5.53
2018-01-21T22:36:48.723Z,5.47
2018-01-21T22:39:15.449Z,5.75
2018-01-21T22:41:42.130Z,5.50
2018-01-21T22:44:08.917Z,4.90
2018-01-21T22:46:35.608Z,5.80
2018-01-21T22:49:02.391Z,5.00
2018-01-21T22:51:29.891Z,5.07
2018-01-21T22:53:56.575Z,4.75
2018-01-21T22:56:24.082Z,4.72
2018-01-21T22:58:50.801Z,4.80
2018-01-21T23:01:17.552Z,4.97
2018-01-21T23:03:44.258Z,4.65
2018-01-21T23:06:11.146Z,4.68
2018-01-21T23:08:38.112Z,4.60
2018-01-21T23:11:04.862Z,4.60
2018-01-21T23:13:31.603Z,4.32
2018-01-21T23:15:59.427Z,4.20
2018-01-21T23:18:26.904Z,4.07
2018-01-21T23:21:01.413Z,5.15
2018-01-21T23:23:28.860Z,3.42
2018-01-21T23:25:55.574Z,4.47
2018-01-21T23:28:22.269Z,4.37
2018-01-21T23:30:50.782Z,5.18
2018-01-21T23:33:18.529Z,4.95
2018-01-21T23:35:45.994Z,4.37
2018-01-21T23:38:12.700Z,4.30
2018-01-21T23:40:39.381Z,4.72
2018-01-21T23:43:06.059Z,4.53
2018-01-21T23:45:32.729Z,4.78
2018-01-21T23:47:59.386Z,4.65
2018-01-21T23:50:26.890Z,4.75
2018-01-21T23:52:53.571Z,5.05
2018-01-21T23:55:20.268Z,4.07
2018-01-21T23:57:46.954Z,4.72
